sensor_id;sensor_type;location;lat;lon;timestamp;pressure;altitude;pressure_sealevel;temperature;humidity
20930;BME280;21895;47.072;15.132;2024-01-06T00:01:11;95483.00;;;5.87;74.50
20930;BME280;21895;47.072;15.132;2024-01-06T00:03:38;95482.00;;;5.86;74.18
20930;BME280;21895;47.072;15.132;2024-01-06T00:06:06;95474.00;;;5.76;74.29
20930;BME280;21895;47.072;15.132;2024-01-06T00:08:32;95474.00;;;5.71;74.46
20930;BME280;21895;47.072;15.132;2024-01-06T00:10:59;95485.00;;;5.61;74.99
20930;BME280;21895;47.072;15.132;2024-01-06T00:13:29;95483.00;;;5.63;75.19
20930;BME280;21895;47.072;15.132;2024-01-06T00:15:55;95472.00;;;5.54;75.57
20930;BME280;21895;47.072;15.132;2024-01-06T00:18:22;95474.00;;;5.54;75.81
20930;BME280;21895;47.072;15.132;2024-01-06T00:20:49;95468.00;;;5.79;75.66
20930;BME280;21895;47.072;15.132;2024-01-06T00:23:15;95464.00;;;5.86;75.40
20930;BME280;21895;47.072;15.132;2024-01-06T00:25:42;95456.00;;;5.89;75.31
20930;BME280;21895;47.072;15.132;2024-01-06T00:28:09;95456.00;;;5.90;75.01
20930;BME280;21895;47.072;15.132;2024-01-06T00:30:36;95461.00;;;5.96;74.42
20930;BME280;21895;47.072;15.132;2024-01-06T00:33:03;95458.00;;;5.79;74.98
20930;BME280;21895;47.072;15.132;2024-01-06T00:35:29;95459.00;;;5.76;75.24
20930;BME280;21895;47.072;15.132;2024-01-06T00:37:56;95460.00;;;5.90;74.86
20930;BME280;21895;47.072;15.132;2024-01-06T00:40:22;95463.00;;;5.83;75.12
20930;BME280;21895;47.072;15.132;2024-01-06T00:42:49;95461.00;;;5.92;74.84
20930;BME280;21895;47.072;15.132;2024-01-06T00:45:16;95457.00;;;5.85;74.92
20930;BME280;21895;47.072;15.132;2024-01-06T00:47:43;95455.00;;;5.77;75.56
20930;BME280;21895;47.072;15.132;2024-01-06T00:50:10;95453.00;;;5.86;74.98
20930;BME280;21895;47.072;15.132;2024-01-06T00:52:37;95451.00;;;5.79;75.07
20930;BME280;21895;47.072;15.132;2024-01-06T00:55:04;95457.00;;;5.87;74.92
20930;BME280;21895;47.072;15.132;2024-01-06T00:57:30;95457.00;;;5.83;75.04
20930;BME280;21895;47.072;15.132;2024-01-06T00:59:57;95447.00;;;5.74;75.59
20930;BME280;21895;47.072;15.132;2024-01-06T01:02:24;95448.00;;;5.76;75.80
20930;BME280;21895;47.072;15.132;2024-01-06T01:04:50;95447.00;;;5.69;75.99
20930;BME280;21895;47.072;15.132;2024-01-06T01:07:18;95442.00;;;5.82;75.76
20930;BME280;21895;47.072;15.132;2024-01-06T01:09:45;95434.00;;;5.89;75.83
20930;BME280;21895;47.072;15.132;2024-01-06T01:12:12;95441.00;;;5.92;75.55
20930;BME280;21895;47.072;15.132;2024-01-06T01:14:38;95440.00;;;5.98;75.27
20930;BME280;21895;47.072;15.132;2024-01-06T01:17:05;95437.00;;;6.01;75.27
20930;BME280;21895;47.072;15.132;2024-01-06T01:19:31;95445.00;;;6.03;75.44
20930;BME280;21895;47.072;15.132;2024-01-06T01:21:58;95445.00;;;6.09;75.23
20930;BME280;21895;47.072;15.132;2024-01-06T01:24:25;95451.00;;;6.09;75.54
20930;BME280;21895;47.072;15.132;2024-01-06T01:26:51;95453.00;;;6.11;75.43
20930;BME280;21895;47.072;15.132;2024-01-06T01:29:18;95453.00;;;6.14;75.37
20930;BME280;21895;47.072;15.132;2024-01-06T01:31:46;95445.00;;;6.16;75.42
20930;BME280;21895;47.072;15.132;2024-01-06T01:34:13;95444.00;;;6.17;75.20
20930;BME280;21895;47.072;15.132;2024-01-06T01:36:40;95442.00;;;6.24;74.91
20930;BME280;21895;47.072;15.132;2024-01-06T01:39:07;95441.00;;;6.27;74.52
20930;BME280;21895;47.072;15.132;2024-01-06T01:41:34;95436.00;;;6.34;74.47
20930;BME280;21895;47.072;15.132;2024-01-06T01:44:01;95434.00;;;6.31;74.45
20930;BME280;21895;47.072;15.132;2024-01-06T01:46:29;95435.00;;;6.20;74.67
20930;BME280;21895;47.072;15.132;2024-01-06T01:48:58;95430.00;;;6.10;75.30
20930;BME280;21895;47.072;15.132;2024-01-06T01:51:29;95421.00;;;6.09;75.32
20930;BME280;21895;47.072;15.132;2024-01-06T01:54:02;95427.00;;;6.16;75.22
20930;BME280;21895;47.072;15.132;2024-01-06T01:56:31;95425.00;;;6.14;75.39
20930;BME280;21895;47.072;15.132;2024-01-06T01:59:12;95422.00;;;6.12;75.53
20930;BME280;21895;47.072;15.132;2024-01-06T02:01:42;95406.00;;;6.13;75.59
20930;BME280;21895;47.072;15.132;2024-01-06T02:04:09;95409.00;;;6.18;75.21
20930;BME280;21895;47.072;15.132;2024-01-06T02:06:36;95402.00;;;6.09;75.70
20930;BME280;21895;47.072;15.132;2024-01-06T02:09:02;95398.00;;;6.03;76.28
20930;BME280;21895;47.072;15.132;2024-01-06T02:11:29;95395.00;;;6.01;76.36
20930;BME280;21895;47.072;15.132;2024-01-06T02:13:56;95392.00;;;6.06;76.24
20930;BME280;21895;47.072;15.132;2024-01-06T02:16:22;95394.00;;;6.12;75.70
20930;BME280;21895;47.072;15.132;2024-01-06T02:18:49;95385.00;;;6.18;75.25
20930;BME280;21895;47.072;15.132;2024-01-06T02:21:17;95394.00;;;6.11;75.67
20930;BME280;21895;47.072;15.132;2024-01-06T02:23:47;95392.00;;;6.09;75.72
20930;BME280;21895;47.072;15.132;2024-01-06T02:26:15;95379.00;;;6.06;75.93
20930;BME280;21895;47.072;15.132;2024-01-06T02:28:42;95383.00;;;6.10;75.97
20930;BME280;21895;47.072;15.132;2024-01-06T02:31:14;95383.00;;;6.12;75.96
20930;BME280;21895;47.072;15.132;2024-01-06T02:33:40;95373.00;;;6.20;75.75
20930;BME280;21895;47.072;15.132;2024-01-06T02:36:07;95370.00;;;6.20;75.75
20930;BME280;21895;47.072;15.132;2024-01-06T02:38:34;95362.00;;;6.07;75.96
20930;BME280;21895;47.072;15.132;2024-01-06T02:41:01;95368.00;;;6.09;76.11
20930;BME280;21895;47.072;15.132;2024-01-06T02:43:27;95361.00;;;5.96;76.51
20930;BME280;21895;47.072;15.132;2024-01-06T02:45:54;95360.00;;;5.95;76.62
20930;BME280;21895;47.072;15.132;2024-01-06T02:48:21;95358.00;;;5.98;76.68
20930;BME280;21895;47.072;15.132;2024-01-06T02:50:47;95357.00;;;5.95;76.63
20930;BME280;21895;47.072;15.132;2024-01-06T02:53:14;95356.00;;;6.02;76.24
20930;BME280;21895;47.072;15.132;2024-01-06T02:55:41;95361.00;;;6.03;76.25
20930;BME280;21895;47.072;15.132;2024-01-06T02:58:07;95352.00;;;5.98;76.44
20930;BME280;21895;47.072;15.132;2024-01-06T03:00:34;95355.00;;;5.96;76.56
20930;BME280;21895;47.072;15.132;2024-01-06T03:03:00;95345.00;;;6.05;76.40
20930;BME280;21895;47.072;15.132;2024-01-06T03:05:27;95350.00;;;6.13;75.99
20930;BME280;21895;47.072;15.132;2024-01-06T03:07:54;95349.00;;;6.19;75.69
20930;BME280;21895;47.072;15.132;2024-01-06T03:10:20;95354.00;;;6.07;76.02
20930;BME280;21895;47.072;15.132;2024-01-06T03:12:47;95359.00;;;6.10;76.02
20930;BME280;21895;47.072;15.132;2024-01-06T03:15:14;95355.00;;;6.06;76.42
20930;BME280;21895;47.072;15.132;2024-01-06T03:17:40;95351.00;;;5.99;76.78
20930;BME280;21895;47.072;15.132;2024-01-06T03:20:08;95349.00;;;6.14;76.55
20930;BME280;21895;47.072;15.132;2024-01-06T03:22:35;95342.00;;;6.21;76.26
20930;BME280;21895;47.072;15.132;2024-01-06T03:25:02;95347.00;;;6.14;76.48
20930;BME280;21895;47.072;15.132;2024-01-06T03:27:29;95342.00;;;6.14;76.39
20930;BME280;21895;47.072;15.132;2024-01-06T03:29:55;95343.00;;;6.27;76.13
20930;BME280;21895;47.072;15.132;2024-01-06T03:32:22;95344.00;;;6.19;76.42
20930;BME280;21895;47.072;15.132;2024-01-06T03:34:48;95350.00;;;6.18;76.55
20930;BME280;21895;47.072;15.132;2024-01-06T03:37:15;95350.00;;;6.16;76.35
20930;BME280;21895;47.072;15.132;2024-01-06T03:39:42;95342.00;;;6.18;76.04
20930;BME280;21895;47.072;15.132;2024-01-06T03:42:08;95343.00;;;6.32;75.75
20930;BME280;21895;47.072;15.132;2024-01-06T03:44:35;95342.00;;;6.28;75.92
20930;BME280;21895;47.072;15.132;2024-01-06T03:47:02;95340.00;;;6.35;75.81
20930;BME280;21895;47.072;15.132;2024-01-06T03:49:28;95337.00;;;6.40;75.47
20930;BME280;21895;47.072;15.132;2024-01-06T03:51:55;95343.00;;;6.32;75.94
20930;BME280;21895;47.072;15.132;2024-01-06T03:54:22;95340.00;;;6.30;76.22
20930;BME280;21895;47.072;15.132;2024-01-06T03:56:49;95341.00;;;6.20;76.08
20930;BME280;21895;47.072;15.132;2024-01-06T03:59:15;95350.00;;;6.16;76.52
20930;BME280;21895;47.072;15.132;2024-01-06T04:01:42;95337.00;;;6.16;76.85
20930;BME280;21895;47.072;15.132;2024-01-06T04:04:08;95337.00;;;6.35;75.77
20930;BME280;21895;47.072;15.132;2024-01-06T04:06:35;95349.00;;;6.31;75.82
20930;BME280;21895;47.072;15.132;2024-01-06T04:09:02;95351.00;;;6.37;75.59
20930;BME280;21895;47.072;15.132;2024-01-06T04:11:28;95357.00;;;6.39;75.44
20930;BME280;21895;47.072;15.132;2024-01-06T04:13:55;95350.00;;;6.38;75.59
20930;BME280;21895;47.072;15.132;2024-01-06T04:16:21;95346.00;;;6.37;75.86
20930;BME280;21895;47.072;15.132;2024-01-06T04:18:48;95344.00;;;6.36;75.83
20930;BME280;21895;47.072;15.132;2024-01-06T04:21:15;95341.00;;;6.42;75.91
20930;BME280;21895;47.072;15.132;2024-01-06T04:23:41;95345.00;;;6.40;75.88
20930;BME280;21895;47.072;15.132;2024-01-06T04:26:08;95354.00;;;6.42;75.81
20930;BME280;21895;47.072;15.132;2024-01-06T04:28:35;95354.00;;;6.47;76.00
20930;BME280;21895;47.072;15.132;2024-01-06T04:31:01;95355.00;;;6.85;74.73
20930;BME280;21895;47.072;15.132;2024-01-06T04:33:28;95348.00;;;6.62;75.04
20930;BME280;21895;47.072;15.132;2024-01-06T04:35:55;95360.00;;;6.56;75.35
20930;BME280;21895;47.072;15.132;2024-01-06T04:38:21;95355.00;;;6.56;75.55
20930;BME280;21895;47.072;15.132;2024-01-06T04:40:48;95356.00;;;6.55;75.77
20930;BME280;21895;47.072;15.132;2024-01-06T04:43:15;95362.00;;;6.47;76.26
20930;BME280;21895;47.072;15.132;2024-01-06T04:45:41;95357.00;;;6.51;76.11
20930;BME280;21895;47.072;15.132;2024-01-06T04:48:08;95364.00;;;6.43;76.44
20930;BME280;21895;47.072;15.132;2024-01-06T04:50:35;95365.00;;;6.42;76.29
20930;BME280;21895;47.072;15.132;2024-01-06T04:53:02;95365.00;;;6.47;76.13
20930;BME280;21895;47.072;15.132;2024-01-06T04:55:28;95371.00;;;6.53;76.35
20930;BME280;21895;47.072;15.132;2024-01-06T04:57:55;95367.00;;;6.52;76.28
20930;BME280;21895;47.072;15.132;2024-01-06T05:00:21;95365.00;;;6.50;76.41
20930;BME280;21895;47.072;15.132;2024-01-06T05:02:48;95360.00;;;6.44;76.82
20930;BME280;21895;47.072;15.132;2024-01-06T05:05:15;95359.00;;;6.40;77.25
20930;BME280;21895;47.072;15.132;2024-01-06T05:07:41;95362.00;;;6.69;76.18
20930;BME280;21895;47.072;15.132;2024-01-06T05:10:08;95362.00;;;6.61;76.26
20930;BME280;21895;47.072;15.132;2024-01-06T05:12:35;95362.00;;;6.44;76.89
20930;BME280;21895;47.072;15.132;2024-01-06T05:15:02;95365.00;;;6.47;76.88
20930;BME280;21895;47.072;15.132;2024-01-06T05:17:29;95367.00;;;6.47;76.84
20930;BME280;21895;47.072;15.132;2024-01-06T05:19:55;95369.00;;;6.45;77.00
20930;BME280;21895;47.072;15.132;2024-01-06T05:22:22;95368.00;;;6.39;77.25
20930;BME280;21895;47.072;15.132;2024-01-06T05:24:49;95373.00;;;6.47;76.62
20930;BME280;21895;47.072;15.132;2024-01-06T05:27:19;95370.00;;;6.39;77.13
20930;BME280;21895;47.072;15.132;2024-01-06T05:29:46;95374.00;;;6.37;77.62
20930;BME280;21895;47.072;15.132;2024-01-06T05:32:13;95379.00;;;6.41;77.78
20930;BME280;21895;47.072;15.132;2024-01-06T05:34:39;95374.00;;;6.33;78.07
20930;BME280;21895;47.072;15.132;2024-01-06T05:37:06;95374.00;;;6.35;78.58
20930;BME280;21895;47.072;15.132;2024-01-06T05:39:33;95372.00;;;6.35;78.83
20930;BME280;21895;47.072;15.132;2024-01-06T05:41:59;95376.00;;;6.29;79.33
20930;BME280;21895;47.072;15.132;2024-01-06T05:44:26;95380.00;;;6.32;79.44
20930;BME280;21895;47.072;15.132;2024-01-06T05:46:52;95377.00;;;6.32;79.58
20930;BME280;21895;47.072;15.132;2024-01-06T05:49:19;95382.00;;;6.40;79.40
20930;BME280;21895;47.072;15.132;2024-01-06T05:51:46;95385.00;;;6.38;79.56
20930;BME280;21895;47.072;15.132;2024-01-06T05:54:13;95385.00;;;6.42;79.70
20930;BME280;21895;47.072;15.132;2024-01-06T05:56:40;95388.00;;;6.42;79.47
20930;BME280;21895;47.072;15.132;2024-01-06T05:59:07;95383.00;;;6.47;79.43
20930;BME280;21895;47.072;15.132;2024-01-06T06:01:33;95392.00;;;6.46;79.55
20930;BME280;21895;47.072;15.132;2024-01-06T06:04:00;95392.00;;;6.48;79.62
20930;BME280;21895;47.072;15.132;2024-01-06T06:06:26;95400.00;;;6.46;79.87
20930;BME280;21895;47.072;15.132;2024-01-06T06:08:53;95397.00;;;6.56;79.62
20930;BME280;21895;47.072;15.132;2024-01-06T06:11:20;95397.00;;;6.63;79.52
20930;BME280;21895;47.072;15.132;2024-01-06T06:13:46;95402.00;;;6.61;79.69
20930;BME280;21895;47.072;15.132;2024-01-06T06:16:13;95401.00;;;6.52;79.84
20930;BME280;21895;47.072;15.132;2024-01-06T06:18:40;95391.00;;;6.39;80.31
20930;BME280;21895;47.072;15.132;2024-01-06T06:21:07;95387.00;;;6.36;80.57
20930;BME280;21895;47.072;15.132;2024-01-06T06:23:34;95388.00;;;6.27;81.30
20930;BME280;21895;47.072;15.132;2024-01-06T06:26:06;95384.00;;;6.33;81.26
20930;BME280;21895;47.072;15.132;2024-01-06T06:28:33;95390.00;;;6.38;81.28
20930;BME280;21895;47.072;15.132;2024-01-06T06:31:01;95386.00;;;6.39;81.07
20930;BME280;21895;47.072;15.132;2024-01-06T06:33:28;95387.00;;;6.36;80.99
20930;BME280;21895;47.072;15.132;2024-01-06T06:35:55;95394.00;;;6.35;81.01
20930;BME280;21895;47.072;15.132;2024-01-06T06:38:21;95384.00;;;6.25;81.36
20930;BME280;21895;47.072;15.132;2024-01-06T06:40:48;95395.00;;;6.28;81.71
20930;BME280;21895;47.072;15.132;2024-01-06T06:43:14;95398.00;;;6.25;81.92
20930;BME280;21895;47.072;15.132;2024-01-06T06:45:45;95383.00;;;6.29;81.85
20930;BME280;21895;47.072;15.132;2024-01-06T06:48:12;95385.00;;;6.21;82.07
20930;BME280;21895;47.072;15.132;2024-01-06T06:50:39;95383.00;;;6.32;82.32
20930;BME280;21895;47.072;15.132;2024-01-06T06:53:08;95378.00;;;6.38;82.47
20930;BME280;21895;47.072;15.132;2024-01-06T06:55:35;95378.00;;;6.47;82.15
20930;BME280;21895;47.072;15.132;2024-01-06T06:58:04;95382.00;;;6.58;81.49
20930;BME280;21895;47.072;15.132;2024-01-06T07:00:32;95374.00;;;6.52;81.24
20930;BME280;21895;47.072;15.132;2024-01-06T07:02:59;95374.00;;;6.38;82.10
20930;BME280;21895;47.072;15.132;2024-01-06T07:05:26;95368.00;;;6.68;81.47
20930;BME280;21895;47.072;15.132;2024-01-06T07:07:52;95377.00;;;6.64;82.05
20930;BME280;21895;47.072;15.132;2024-01-06T07:10:19;95378.00;;;6.59;81.87
20930;BME280;21895;47.072;15.132;2024-01-06T07:12:47;95379.00;;;6.52;82.11
20930;BME280;21895;47.072;15.132;2024-01-06T07:15:14;95387.00;;;6.50;81.88
20930;BME280;21895;47.072;15.132;2024-01-06T07:17:41;95385.00;;;6.52;81.88
20930;BME280;21895;47.072;15.132;2024-01-06T07:20:08;95383.00;;;6.47;82.27
20930;BME280;21895;47.072;15.132;2024-01-06T07:22:37;95384.00;;;6.51;82.21
20930;BME280;21895;47.072;15.132;2024-01-06T07:25:04;95387.00;;;6.57;81.90
20930;BME280;21895;47.072;15.132;2024-01-06T07:27:32;95382.00;;;6.58;81.79
20930;BME280;21895;47.072;15.132;2024-01-06T07:29:58;95391.00;;;6.56;82.21
20930;BME280;21895;47.072;15.132;2024-01-06T07:32:25;95389.00;;;6.65;82.49
20930;BME280;21895;47.072;15.132;2024-01-06T07:34:52;95392.00;;;6.66;82.57
20930;BME280;21895;47.072;15.132;2024-01-06T07:37:18;95391.00;;;6.79;82.33
20930;BME280;21895;47.072;15.132;2024-01-06T07:39:45;95391.00;;;6.81;82.13
20930;BME280;21895;47.072;15.132;2024-01-06T07:42:12;95394.00;;;6.78;82.31
20930;BME280;21895;47.072;15.132;2024-01-06T07:44:38;95385.00;;;6.84;82.32
20930;BME280;21895;47.072;15.132;2024-01-06T07:47:05;95390.00;;;6.91;82.13
20930;BME280;21895;47.072;15.132;2024-01-06T07:49:32;95387.00;;;6.86;82.21
20930;BME280;21895;47.072;15.132;2024-01-06T07:51:59;95385.00;;;6.85;82.45
20930;BME280;21895;47.072;15.132;2024-01-06T07:54:26;95385.00;;;6.87;82.53
20930;BME280;21895;47.072;15.132;2024-01-06T07:56:53;95379.00;;;6.90;82.65
20930;BME280;21895;47.072;15.132;2024-01-06T07:59:19;95375.00;;;6.94;83.10
20930;BME280;21895;47.072;15.132;2024-01-06T08:01:46;95383.00;;;6.98;82.97
20930;BME280;21895;47.072;15.132;2024-01-06T08:04:13;95381.00;;;7.07;82.76
20930;BME280;21895;47.072;15.132;2024-01-06T08:06:39;95381.00;;;7.13;82.30
20930;BME280;21895;47.072;15.132;2024-01-06T08:09:06;95379.00;;;7.05;82.57
20930;BME280;21895;47.072;15.132;2024-01-06T08:11:32;95382.00;;;7.07;82.57
20930;BME280;21895;47.072;15.132;2024-01-06T08:13:59;95390.00;;;7.16;82.21
20930;BME280;21895;47.072;15.132;2024-01-06T08:16:26;95389.00;;;7.10;82.16
20930;BME280;21895;47.072;15.132;2024-01-06T08:18:52;95389.00;;;7.13;81.88
20930;BME280;21895;47.072;15.132;2024-01-06T08:21:19;95383.00;;;7.26;81.66
20930;BME280;21895;47.072;15.132;2024-01-06T08:23:46;95392.00;;;7.24;82.00
20930;BME280;21895;47.072;15.132;2024-01-06T08:26:12;95392.00;;;7.23;82.25
20930;BME280;21895;47.072;15.132;2024-01-06T08:28:39;95387.00;;;7.25;82.50
20930;BME280;21895;47.072;15.132;2024-01-06T08:31:06;95397.00;;;7.40;82.02
20930;BME280;21895;47.072;15.132;2024-01-06T08:33:33;95400.00;;;7.39;81.96
20930;BME280;21895;47.072;15.132;2024-01-06T08:36:00;95404.00;;;7.45;82.07
20930;BME280;21895;47.072;15.132;2024-01-06T08:38:26;95406.00;;;7.44;82.18
20930;BME280;21895;47.072;15.132;2024-01-06T08:40:53;95404.00;;;7.48;82.03
20930;BME280;21895;47.072;15.132;2024-01-06T08:43:20;95402.00;;;7.50;82.04
20930;BME280;21895;47.072;15.132;2024-01-06T08:45:46;95396.00;;;7.43;82.51
20930;BME280;21895;47.072;15.132;2024-01-06T08:48:14;95402.00;;;7.47;82.37
20930;BME280;21895;47.072;15.132;2024-01-06T08:50:41;95400.00;;;7.42;82.52
20930;BME280;21895;47.072;15.132;2024-01-06T08:53:08;95401.00;;;7.46;82.48
20930;BME280;21895;47.072;15.132;2024-01-06T08:55:34;95410.00;;;7.57;82.08
20930;BME280;21895;47.072;15.132;2024-01-06T08:58:01;95405.00;;;7.62;81.73
20930;BME280;21895;47.072;15.132;2024-01-06T09:00:28;95412.00;;;7.72;81.39
20930;BME280;21895;47.072;15.132;2024-01-06T09:02:55;95418.00;;;7.75;81.36
20930;BME280;21895;47.072;15.132;2024-01-06T09:05:21;95412.00;;;7.80;81.31
20930;BME280;21895;47.072;15.132;2024-01-06T09:07:48;95421.00;;;7.89;81.13
20930;BME280;21895;47.072;15.132;2024-01-06T09:10:20;95417.00;;;7.85;81.28
20930;BME280;21895;47.072;15.132;2024-01-06T09:12:47;95416.00;;;7.96;81.19
20930;BME280;21895;47.072;15.132;2024-01-06T09:15:14;95417.00;;;7.92;81.28
20930;BME280;21895;47.072;15.132;2024-01-06T09:17:40;95414.00;;;8.06;80.67
20930;BME280;21895;47.072;15.132;2024-01-06T09:20:08;95413.00;;;8.10;80.79
20930;BME280;21895;47.072;15.132;2024-01-06T09:22:35;95419.00;;;8.12;80.62
20930;BME280;21895;47.072;15.132;2024-01-06T09:25:01;95419.00;;;8.12;80.63
20930;BME280;21895;47.072;15.132;2024-01-06T09:27:28;95421.00;;;8.06;81.24
20930;BME280;21895;47.072;15.132;2024-01-06T09:29:55;95424.00;;;8.16;80.95
20930;BME280;21895;47.072;15.132;2024-01-06T09:32:21;95425.00;;;8.12;81.37
20930;BME280;21895;47.072;15.132;2024-01-06T09:34:49;95428.00;;;8.22;81.09
20930;BME280;21895;47.072;15.132;2024-01-06T09:37:16;95419.00;;;8.20;81.06
20930;BME280;21895;47.072;15.132;2024-01-06T09:39:42;95429.00;;;8.21;81.14
20930;BME280;21895;47.072;15.132;2024-01-06T09:42:09;95419.00;;;8.22;81.36
20930;BME280;21895;47.072;15.132;2024-01-06T09:44:37;95426.00;;;8.26;81.12
20930;BME280;21895;47.072;15.132;2024-01-06T09:47:05;95423.00;;;8.27;81.13
20930;BME280;21895;47.072;15.132;2024-01-06T09:49:34;95423.00;;;8.21;81.65
20930;BME280;21895;47.072;15.132;2024-01-06T09:52:15;95424.00;;;8.16;82.00
20930;BME280;21895;47.072;15.132;2024-01-06T09:54:53;95423.00;;;8.19;82.29
20930;BME280;21895;47.072;15.132;2024-01-06T09:57:23;95425.00;;;8.12;82.65
20930;BME280;21895;47.072;15.132;2024-01-06T09:59:51;95424.00;;;8.16;82.85
20930;BME280;21895;47.072;15.132;2024-01-06T10:02:18;95423.00;;;8.17;82.95
20930;BME280;21895;47.072;15.132;2024-01-06T10:04:44;95422.00;;;8.12;83.00
20930;BME280;21895;47.072;15.132;2024-01-06T10:07:12;95422.00;;;8.09;83.29
20930;BME280;21895;47.072;15.132;2024-01-06T10:09:43;95427.00;;;8.15;83.39
20930;BME280;21895;47.072;15.132;2024-01-06T10:12:10;95426.00;;;8.16;83.54
20930;BME280;21895;47.072;15.132;2024-01-06T10:14:37;95413.00;;;8.18;83.36
20930;BME280;21895;47.072;15.132;2024-01-06T10:17:07;95416.00;;;8.18;83.39
20930;BME280;21895;47.072;15.132;2024-01-06T10:19:37;95416.00;;;8.26;83.09
20930;BME280;21895;47.072;15.132;2024-01-06T10:22:05;95417.00;;;8.27;82.84
20930;BME280;21895;47.072;15.132;2024-01-06T10:24:31;95419.00;;;8.25;82.80
20930;BME280;21895;47.072;15.132;2024-01-06T10:26:58;95414.00;;;8.32;82.94
20930;BME280;21895;47.072;15.132;2024-01-06T10:29:25;95411.00;;;8.32;83.01
20930;BME280;21895;47.072;15.132;2024-01-06T10:31:54;95403.00;;;8.35;82.89
20930;BME280;21895;47.072;15.132;2024-01-06T10:34:23;95406.00;;;8.30;83.37
20930;BME280;21895;47.072;15.132;2024-01-06T10:36:51;95407.00;;;8.29;83.67
20930;BME280;21895;47.072;15.132;2024-01-06T10:39:21;95405.00;;;8.29;84.00
20930;BME280;21895;47.072;15.132;2024-01-06T10:41:49;95404.00;;;8.29;84.27
20930;BME280;21895;47.072;15.132;2024-01-06T10:44:16;95400.00;;;8.30;84.19
20930;BME280;21895;47.072;15.132;2024-01-06T10:46:44;95390.00;;;8.44;83.86
20930;BME280;21895;47.072;15.132;2024-01-06T10:49:15;95392.00;;;8.38;84.06
20930;BME280;21895;47.072;15.132;2024-01-06T10:51:46;95390.00;;;8.37;84.27
20930;BME280;21895;47.072;15.132;2024-01-06T10:54:15;95389.00;;;8.29;84.75
20930;BME280;21895;47.072;15.132;2024-01-06T10:56:45;95382.00;;;8.33;84.70
20930;BME280;21895;47.072;15.132;2024-01-06T10:59:14;95379.00;;;8.40;84.52
20930;BME280;21895;47.072;15.132;2024-01-06T11:01:42;95379.00;;;8.40;84.80
20930;BME280;21895;47.072;15.132;2024-01-06T11:04:10;95366.00;;;8.30;85.22
20930;BME280;21895;47.072;15.132;2024-01-06T11:06:38;95373.00;;;8.26;85.68
20930;BME280;21895;47.072;15.132;2024-01-06T11:09:29;95368.00;;;8.28;85.95
20930;BME280;21895;47.072;15.132;2024-01-06T11:12:01;95367.00;;;8.29;86.07
20930;BME280;21895;47.072;15.132;2024-01-06T11:14:28;95372.00;;;8.30;86.01
20930;BME280;21895;47.072;15.132;2024-01-06T11:16:55;95360.00;;;8.34;85.94
20930;BME280;21895;47.072;15.132;2024-01-06T11:21:16;95362.00;;;8.31;86.02
20930;BME280;21895;47.072;15.132;2024-01-06T11:24:18;95357.00;;;8.31;86.01
20930;BME280;21895;47.072;15.132;2024-01-06T11:26:53;95355.00;;;8.33;85.85
20930;BME280;21895;47.072;15.132;2024-01-06T11:29:21;95355.00;;;8.30;86.01
20930;BME280;21895;47.072;15.132;2024-01-06T11:32:25;95358.00;;;8.25;86.51
20930;BME280;21895;47.072;15.132;2024-01-06T11:34:53;95357.00;;;8.29;86.15
20930;BME280;21895;47.072;15.132;2024-01-06T11:39:47;95349.00;;;8.31;86.14
20930;BME280;21895;47.072;15.132;2024-01-06T11:42:14;95352.00;;;8.26;86.80
20930;BME280;21895;47.072;15.132;2024-01-06T11:44:44;95345.00;;;8.28;86.83
20930;BME280;21895;47.072;15.132;2024-01-06T11:47:15;95346.00;;;8.27;86.64
20930;BME280;21895;47.072;15.132;2024-01-06T11:49:52;95348.00;;;8.32;86.28
20930;BME280;21895;47.072;15.132;2024-01-06T11:52:20;95349.00;;;8.31;86.31
20930;BME280;21895;47.072;15.132;2024-01-06T11:54:47;95342.00;;;8.23;86.39
20930;BME280;21895;47.072;15.132;2024-01-06T11:57:16;95347.00;;;8.27;86.26
20930;BME280;21895;47.072;15.132;2024-01-06T11:59:42;95340.00;;;8.19;86.45
20930;BME280;21895;47.072;15.132;2024-01-06T12:02:12;95342.00;;;8.16;86.50
20930;BME280;21895;47.072;15.132;2024-01-06T12:04:40;95340.00;;;8.22;86.31
20930;BME280;21895;47.072;15.132;2024-01-06T12:07:10;95332.00;;;8.20;86.59
20930;BME280;21895;47.072;15.132;2024-01-06T12:09:40;95334.00;;;8.25;86.51
20930;BME280;21895;47.072;15.132;2024-01-06T12:12:08;95329.00;;;8.37;86.50
20930;BME280;21895;47.072;15.132;2024-01-06T12:14:36;95331.00;;;8.37;86.50
20930;BME280;21895;47.072;15.132;2024-01-06T12:17:04;95336.00;;;8.33;86.78
20930;BME280;21895;47.072;15.132;2024-01-06T12:19:33;95323.00;;;8.35;86.92
20930;BME280;21895;47.072;15.132;2024-01-06T12:22:06;95321.00;;;8.39;86.86
20930;BME280;21895;47.072;15.132;2024-01-06T12:24:33;95322.00;;;8.36;86.74
20930;BME280;21895;47.072;15.132;2024-01-06T12:27:00;95320.00;;;8.43;86.48
20930;BME280;21895;47.072;15.132;2024-01-06T12:29:27;95324.00;;;8.39;86.68
20930;BME280;21895;47.072;15.132;2024-01-06T12:31:55;95325.00;;;8.38;86.66
20930;BME280;21895;47.072;15.132;2024-01-06T12:34:22;95318.00;;;8.32;87.07
20930;BME280;21895;47.072;15.132;2024-01-06T12:36:53;95323.00;;;8.35;87.06
20930;BME280;21895;47.072;15.132;2024-01-06T12:39:21;95313.00;;;8.39;86.83
20930;BME280;21895;47.072;15.132;2024-01-06T12:41:50;95322.00;;;8.38;87.05
20930;BME280;21895;47.072;15.132;2024-01-06T12:44:18;95330.00;;;8.46;87.12
20930;BME280;21895;47.072;15.132;2024-01-06T12:46:45;95324.00;;;8.49;86.93
20930;BME280;21895;47.072;15.132;2024-01-06T12:49:11;95323.00;;;8.55;86.64
20930;BME280;21895;47.072;15.132;2024-01-06T12:51:38;95327.00;;;8.61;86.28
20930;BME280;21895;47.072;15.132;2024-01-06T12:54:05;95332.00;;;8.67;86.16
20930;BME280;21895;47.072;15.132;2024-01-06T12:56:32;95326.00;;;8.69;85.90
20930;BME280;21895;47.072;15.132;2024-01-06T12:58:58;95323.00;;;8.85;85.42
20930;BME280;21895;47.072;15.132;2024-01-06T13:01:26;95333.00;;;8.73;85.77
20930;BME280;21895;47.072;15.132;2024-01-06T13:03:52;95332.00;;;8.74;85.93
20930;BME280;21895;47.072;15.132;2024-01-06T13:06:21;95329.00;;;8.74;85.98